Time;durP1;ratioP1;P1;durP2;ratioP2;P2;SDS_P1;SDS_P2;PMS_P1;PMS_P2;Temp;Humidity;BMP_temperature;BMP_pressure;BME280_temperature;BME280_humidity;BME280_pressure;Samples;Min_cycle;Max_cycle;Signal;HPM_P1;HPM_P2
2023/08/04 00:00:39;;;;;;;5.53;2.72;;;15.90;99.90;;;;;;5026059;28;20112;-85
2023/08/04 00:03:05;;;;;;;4.03;2.33;;;15.90;99.90;;;;;;5014084;28;20480;-82
2023/08/04 00:05:31;;;;;;;5.75;2.50;;;15.90;99.90;;;;;;5023120;28;20086;-85
2023/08/04 00:07:56;;;;;;;5.75;2.55;;;15.90;99.90;;;;;;5023192;28;20128;-84
2023/08/04 00:10:22;;;;;;;4.70;2.33;;;15.90;99.90;;;;;;5023166;28;20075;-84
2023/08/04 00:12:48;;;;;;;4.97;2.92;;;15.80;99.90;;;;;;5022659;28;20511;-84
2023/08/04 00:15:13;;;;;;;5.47;2.83;;;15.80;99.90;;;;;;5021272;28;20163;-84
2023/08/04 00:17:39;;;;;;;6.60;2.85;;;15.80;99.90;;;;;;5025629;28;20527;-85
2023/08/04 00:20:10;;;;;;;5.95;2.88;;;15.80;99.90;;;;;;5013046;28;20038;-84
2023/08/04 00:22:36;;;;;;;6.25;2.35;;;15.80;99.90;;;;;;5008594;28;20026;-85
2023/08/04 00:25:03;;;;;;;9.75;2.65;;;15.70;99.90;;;;;;5010129;28;20022;-85
2023/08/04 00:27:28;;;;;;;5.57;2.35;;;15.70;99.90;;;;;;5018732;28;20034;-85
2023/08/04 00:29:54;;;;;;;5.95;3.20;;;15.70;99.90;;;;;;5017793;28;20083;-84
2023/08/04 00:32:20;;;;;;;4.78;2.78;;;15.70;99.90;;;;;;5011312;28;20026;-84
2023/08/04 00:34:45;;;;;;;4.53;2.40;;;15.70;99.90;;;;;;5014003;28;20033;-85
2023/08/04 00:37:11;;;;;;;5.07;2.50;;;15.70;99.90;;;;;;5010529;28;20036;-85
2023/08/04 00:39:37;;;;;;;3.63;2.47;;;15.70;99.90;;;;;;5012862;28;20022;-85
2023/08/04 00:42:03;;;;;;;5.70;2.75;;;15.60;99.90;;;;;;5022229;28;20021;-85
2023/08/04 00:44:28;;;;;;;2.83;2.40;;;15.60;99.90;;;;;;5016649;28;20381;-85
2023/08/04 00:46:58;;;;;;;2.97;2.45;;;15.60;99.90;;;;;;5022575;28;20044;-85
2023/08/04 00:49:24;;;;;;;5.28;2.70;;;15.60;99.90;;;;;;5016280;28;20069;-85
2023/08/04 00:51:50;;;;;;;4.28;2.20;;;15.50;99.90;;;;;;5022938;28;20048;-85
2023/08/04 00:54:16;;;;;;;6.10;2.40;;;15.40;99.90;;;;;;5017418;28;20140;-84
2023/08/04 00:56:41;;;;;;;5.20;2.15;;;15.40;99.90;;;;;;5027855;28;20539;-85
2023/08/04 00:59:07;;;;;;;6.70;2.45;;;15.40;99.90;;;;;;5010746;28;20088;-85
2023/08/04 01:01:33;;;;;;;4.10;2.13;;;15.30;99.90;;;;;;5014860;28;20696;-84
2023/08/04 01:03:58;;;;;;;5.45;2.30;;;15.30;99.90;;;;;;5018356;28;20026;-85
2023/08/04 01:06:36;;;;;;;6.15;2.58;;;15.30;99.90;;;;;;5018698;28;20029;-86
2023/08/04 01:09:13;;;;;;;4.13;2.17;;;15.20;99.90;;;;;;5025601;28;20096;-85
2023/08/04 01:12:05;;;;;;;2.42;1.90;;;15.10;99.90;;;;;;5016360;28;20799;-85
2023/08/04 01:14:31;;;;;;;4.18;2.30;;;15.10;99.90;;;;;;5012197;28;20026;-85
2023/08/04 01:17:01;;;;;;;5.03;1.85;;;15.10;99.90;;;;;;5021807;28;20056;-85
2023/08/04 01:19:26;;;;;;;2.35;2.00;;;15.00;99.90;;;;;;5012265;28;20029;-85
2023/08/04 01:21:52;;;;;;;4.53;2.30;;;15.00;99.90;;;;;;5016714;28;20106;-84
2023/08/04 01:24:18;;;;;;;5.38;1.98;;;15.00;99.90;;;;;;5019745;28;20476;-85
2023/08/04 01:26:45;;;;;;;3.83;2.50;;;14.90;99.90;;;;;;5022942;28;21305;-84
2023/08/04 01:29:13;;;;;;;3.92;1.92;;;14.90;99.90;;;;;;5014465;28;20153;-84
2023/08/04 01:31:40;;;;;;;6.82;3.13;;;14.90;99.90;;;;;;5014060;28;20076;-85
2023/08/04 01:34:05;;;;;;;4.72;2.50;;;14.80;99.90;;;;;;5021377;28;20237;-84
2023/08/04 01:36:31;;;;;;;2.22;1.70;;;14.80;99.90;;;;;;5013211;28;20037;-85
2023/08/04 01:38:58;;;;;;;3.85;2.55;;;14.80;99.90;;;;;;5019870;28;20022;-85
2023/08/04 01:41:24;;;;;;;11.13;2.55;;;14.80;99.90;;;;;;5019369;28;20053;-84
2023/08/04 01:43:49;;;;;;;2.88;2.30;;;14.80;99.90;;;;;;5016408;28;20041;-85
2023/08/04 01:46:15;;;;;;;4.32;2.10;;;14.80;99.90;;;;;;5021867;28;20155;-85
2023/08/04 01:48:41;;;;;;;8.57;3.08;;;14.70;99.90;;;;;;5013784;28;20030;-85
2023/08/04 01:51:07;;;;;;;8.45;2.72;;;14.80;99.90;;;;;;5012204;28;20045;-85
2023/08/04 01:53:33;;;;;;;4.80;2.10;;;14.80;99.90;;;;;;5011903;28;20018;-85
2023/08/04 01:55:58;;;;;;;3.03;2.30;;;14.70;99.90;;;;;;5010289;28;20028;-86
2023/08/04 01:58:24;;;;;;;5.05;2.30;;;14.70;99.90;;;;;;5017716;28;20026;-85
2023/08/04 02:00:50;;;;;;;5.45;2.55;;;14.80;99.90;;;;;;5015826;28;20083;-84
2023/08/04 02:03:16;;;;;;;5.47;2.90;;;14.70;99.90;;;;;;5019475;28;20034;-84
2023/08/04 02:05:48;;;;;;;4.85;2.50;;;14.70;99.90;;;;;;5017562;28;20032;-85
2023/08/04 02:08:14;;;;;;;3.70;2.70;;;14.70;99.90;;;;;;5026663;28;20018;-83
2023/08/04 02:10:49;;;;;;;2.38;2.17;;;14.70;99.90;;;;;;5008599;28;20382;-85
2023/08/04 02:13:15;;;;;;;4.25;2.47;;;14.70;99.90;;;;;;5022072;28;20029;-85
2023/08/04 02:15:43;;;;;;;6.10;3.10;;;14.60;99.90;;;;;;5020839;28;20099;-85
2023/08/04 02:18:09;;;;;;;9.43;3.10;;;14.60;99.90;;;;;;5022784;28;20028;-83
2023/08/04 02:20:34;;;;;;;4.13;2.55;;;14.60;99.90;;;;;;5026288;28;20030;-85
2023/08/04 02:23:00;;;;;;;3.92;2.92;;;14.60;99.90;;;;;;5010483;28;20488;-85
2023/08/04 02:25:26;;;;;;;5.57;3.40;;;14.60;99.90;;;;;;5018908;28;20686;-85
2023/08/04 02:27:51;;;;;;;3.65;2.95;;;14.60;99.90;;;;;;5016350;28;20122;-85
2023/08/04 02:30:17;;;;;;;3.55;3.20;;;14.60;99.90;;;;;;5021754;28;20053;-84
2023/08/04 02:32:42;;;;;;;3.85;3.05;;;14.60;99.90;;;;;;5021745;28;20030;-85
2023/08/04 02:35:08;;;;;;;4.85;3.10;;;14.60;99.90;;;;;;5015522;28;20033;-85
2023/08/04 02:37:34;;;;;;;5.15;2.70;;;14.60;99.90;;;;;;5020852;28;20037;-85
2023/08/04 02:40:00;;;;;;;2.85;2.65;;;14.60;99.90;;;;;;5010078;28;20508;-85
2023/08/04 02:42:25;;;;;;;7.00;3.65;;;14.60;99.90;;;;;;5017527;28;20160;-85
2023/08/04 02:44:54;;;;;;;7.68;3.47;;;14.60;99.90;;;;;;5022198;28;20427;-84
2023/08/04 02:47:20;;;;;;;6.90;2.83;;;14.70;99.90;;;;;;5004471;28;20026;-84
2023/08/04 02:49:46;;;;;;;7.35;3.53;;;14.70;99.90;;;;;;5019450;28;20531;-85
2023/08/04 02:52:14;;;;;;;4.93;3.10;;;14.70;99.90;;;;;;5015370;28;20030;-85
2023/08/04 02:54:40;;;;;;;4.60;2.50;;;14.70;99.90;;;;;;5013242;28;20018;-85
2023/08/04 02:57:08;;;;;;;3.78;2.83;;;14.70;99.90;;;;;;5020472;28;20032;-84
2023/08/04 02:59:34;;;;;;;7.68;3.40;;;14.70;99.90;;;;;;5020976;28;20488;-85
2023/08/04 03:02:00;;;;;;;4.25;3.22;;;14.80;99.90;;;;;;5027509;28;20033;-85
2023/08/04 03:04:26;;;;;;;7.00;2.78;;;14.80;99.90;;;;;;5013571;28;20400;-86
2023/08/04 03:06:51;;;;;;;4.93;2.63;;;14.80;99.90;;;;;;5025441;28;20024;-85
2023/08/04 03:09:17;;;;;;;7.07;3.22;;;14.80;99.90;;;;;;5017543;28;20539;-85
2023/08/04 03:11:43;;;;;;;4.88;3.30;;;14.80;99.90;;;;;;5028017;28;20148;-84
2023/08/04 03:14:08;;;;;;;8.95;3.20;;;14.80;99.90;;;;;;5022292;28;20021;-85
2023/08/04 03:16:34;;;;;;;4.75;2.78;;;14.80;99.90;;;;;;5019206;28;20022;-84
2023/08/04 03:19:00;;;;;;;5.13;3.22;;;14.80;99.90;;;;;;5018637;28;20503;-85
2023/08/04 03:21:25;;;;;;;7.40;3.63;;;14.80;99.90;;;;;;5017935;28;20062;-85
2023/08/04 03:23:51;;;;;;;5.80;3.38;;;14.90;99.90;;;;;;5028989;28;20731;-84
2023/08/04 03:26:17;;;;;;;8.20;4.25;;;14.90;99.90;;;;;;5019484;28;20031;-85
2023/08/04 03:28:42;;;;;;;8.18;2.65;;;14.90;99.90;;;;;;5017036;28;20029;-85
2023/08/04 03:31:08;;;;;;;7.63;3.03;;;14.90;99.90;;;;;;5024078;28;20041;-85
2023/08/04 03:33:34;;;;;;;4.55;3.28;;;14.90;99.90;;;;;;5020775;28;20034;-84
2023/08/04 03:35:59;;;;;;;3.67;2.63;;;14.90;99.90;;;;;;5026932;28;20025;-85
2023/08/04 03:38:25;;;;;;;6.00;2.95;;;14.90;99.90;;;;;;5017163;28;20060;-85
2023/08/04 03:40:51;;;;;;;9.50;3.83;;;14.90;99.90;;;;;;5026131;28;20101;-85
2023/08/04 03:43:16;;;;;;;3.85;2.95;;;14.90;99.90;;;;;;5015360;28;20145;-84
2023/08/04 03:45:42;;;;;;;5.68;3.00;;;15.00;99.90;;;;;;5021187;28;20018;-83
2023/08/04 03:48:07;;;;;;;5.32;3.30;;;15.00;99.90;;;;;;5013581;28;20057;-85
2023/08/04 03:50:33;;;;;;;4.03;3.20;;;15.00;99.90;;;;;;5021347;28;20408;-84
2023/08/04 03:52:59;;;;;;;10.80;4.00;;;15.00;99.90;;;;;;5011334;28;20401;-84
2023/08/04 03:55:25;;;;;;;6.53;3.28;;;15.00;99.90;;;;;;5012140;28;20441;-83
2023/08/04 03:57:51;;;;;;;3.50;3.10;;;15.00;99.90;;;;;;5019228;28;20032;-84
2023/08/04 04:00:16;;;;;;;4.38;2.65;;;15.00;99.90;;;;;;5012947;28;20036;-83
2023/08/04 04:02:42;;;;;;;5.90;3.10;;;15.00;99.90;;;;;;5024728;28;20080;-84
2023/08/04 04:05:08;;;;;;;8.15;3.13;;;15.00;99.90;;;;;;5011251;28;20393;-84
2023/08/04 04:07:33;;;;;;;6.65;3.63;;;15.00;99.90;;;;;;5017196;28;20069;-85
2023/08/04 04:09:59;;;;;;;4.15;2.80;;;15.10;99.90;;;;;;5014964;28;20365;-83
2023/08/04 04:12:24;;;;;;;8.27;3.38;;;15.10;99.90;;;;;;5025265;28;20034;-84
2023/08/04 04:14:50;;;;;;;6.60;3.13;;;15.00;99.90;;;;;;5016244;28;20113;-84
2023/08/04 04:17:19;;;;;;;7.95;3.10;;;15.10;99.90;;;;;;5025214;28;20018;-84
2023/08/04 04:19:44;;;;;;;7.55;3.15;;;15.10;99.90;;;;;;5024920;28;20571;-84
2023/08/04 04:22:10;;;;;;;3.67;2.70;;;15.10;99.90;;;;;;5016377;28;20037;-84
2023/08/04 04:24:36;;;;;;;8.85;3.45;;;15.10;99.90;;;;;;5017094;28;20036;-84
2023/08/04 04:27:02;;;;;;;5.30;2.97;;;15.10;99.90;;;;;;5021694;28;20037;-83
2023/08/04 04:29:28;;;;;;;5.60;3.33;;;15.10;99.90;;;;;;5011044;28;20037;-84
2023/08/04 04:31:54;;;;;;;4.07;3.13;;;15.20;99.90;;;;;;5015204;28;20376;-84
2023/08/04 04:34:21;;;;;;;6.57;3.58;;;15.20;99.90;;;;;;5012528;28;20037;-83
2023/08/04 04:36:47;;;;;;;8.25;3.72;;;15.10;99.90;;;;;;5022436;28;20085;-84
2023/08/04 04:39:15;;;;;;;8.45;3.28;;;15.20;99.90;;;;;;5020628;28;20112;-85
2023/08/04 04:41:41;;;;;;;4.38;3.03;;;15.20;99.90;;;;;;5018573;28;20052;-84
2023/08/04 04:44:07;;;;;;;8.48;3.75;;;15.20;99.90;;;;;;5014041;28;20033;-85
2023/08/04 04:46:32;;;;;;;6.88;3.10;;;15.20;99.90;;;;;;5019639;28;20021;-84
2023/08/04 04:48:58;;;;;;;9.00;3.13;;;15.20;99.90;;;;;;5012583;28;20110;-83
2023/08/04 04:51:23;;;;;;;8.18;3.53;;;15.30;99.90;;;;;;5024657;28;20048;-83
2023/08/04 04:53:49;;;;;;;9.35;5.07;;;15.30;99.90;;;;;;5012466;28;20570;-86
2023/08/04 04:56:14;;;;;;;6.63;4.05;;;15.30;99.90;;;;;;5027651;28;20017;-84
2023/08/04 04:58:40;;;;;;;7.57;4.38;;;15.30;99.90;;;;;;5005930;28;20033;-83
2023/08/04 05:01:07;;;;;;;7.13;3.25;;;15.30;99.90;;;;;;5013308;28;20049;-85
2023/08/04 05:03:33;;;;;;;5.53;3.97;;;15.30;99.90;;;;;;5024284;28;20022;-82
2023/08/04 05:05:58;;;;;;;5.50;2.92;;;15.30;99.90;;;;;;5016782;28;20026;-83
2023/08/04 05:08:24;;;;;;;6.18;3.63;;;15.30;99.90;;;;;;5011204;28;20034;-85
2023/08/04 05:10:51;;;;;;;7.35;3.78;;;15.40;99.90;;;;;;5011031;28;20029;-85
2023/08/04 05:13:17;;;;;;;5.78;3.10;;;15.40;99.90;;;;;;5021086;28;20030;-83
2023/08/04 05:15:42;;;;;;;6.88;3.28;;;15.40;99.90;;;;;;5010495;28;20428;-83
2023/08/04 05:18:08;;;;;;;10.25;4.10;;;15.40;99.90;;;;;;5019332;28;20940;-83
2023/08/04 05:20:33;;;;;;;9.80;4.55;;;15.50;99.90;;;;;;5023547;28;20419;-83
2023/08/04 05:22:59;;;;;;;13.48;4.97;;;15.50;99.90;;;;;;5020053;28;20037;-84
2023/08/04 05:25:25;;;;;;;6.15;3.42;;;15.50;99.90;;;;;;5023559;28;20037;-82
2023/08/04 05:27:50;;;;;;;7.43;3.50;;;15.60;99.90;;;;;;5018993;28;20504;-84
2023/08/04 05:30:16;;;;;;;8.30;3.85;;;15.60;99.90;;;;;;5014647;28;20097;-86
2023/08/04 05:32:42;;;;;;;4.25;2.95;;;15.60;99.90;;;;;;5020070;28;20041;-82
2023/08/04 05:35:09;;;;;;;5.82;3.03;;;15.60;99.90;;;;;;5019355;28;20022;-84
2023/08/04 05:37:34;;;;;;;7.32;3.35;;;15.60;99.90;;;;;;5023639;28;20021;-84
2023/08/04 05:40:03;;;;;;;4.53;3.40;;;15.70;99.90;;;;;;5012361;28;20105;-84
2023/08/04 05:42:28;;;;;;;10.70;3.95;;;15.70;99.90;;;;;;5014683;28;20080;-84
2023/08/04 05:44:54;;;;;;;9.05;3.10;;;15.70;99.90;;;;;;5025955;28;20061;-83
2023/08/04 05:47:21;;;;;;;4.97;2.95;;;15.70;99.90;;;;;;5012980;28;20022;-83
2023/08/04 05:49:47;;;;;;;5.75;3.17;;;15.80;99.90;;;;;;5020812;28;20040;-83
2023/08/04 05:52:13;;;;;;;5.28;3.63;;;15.80;99.90;;;;;;5020618;28;20030;-84
2023/08/04 05:54:39;;;;;;;8.75;2.85;;;15.80;99.90;;;;;;5024370;28;20079;-85
2023/08/04 05:57:05;;;;;;;6.68;3.25;;;15.90;99.90;;;;;;5019303;28;20026;-83
2023/08/04 05:59:31;;;;;;;5.15;2.55;;;16.00;99.90;;;;;;5015841;28;20018;-84
2023/08/04 06:01:56;;;;;;;4.70;2.55;;;16.10;99.90;;;;;;5016096;28;20044;-85
2023/08/04 06:04:22;;;;;;;3.38;2.70;;;16.00;99.90;;;;;;5017585;28;20112;-85
2023/08/04 06:06:48;;;;;;;6.38;2.92;;;16.10;99.90;;;;;;5013833;28;20506;-83
2023/08/04 06:09:13;;;;;;;3.42;2.53;;;16.10;99.90;;;;;;5005962;28;20033;-84
2023/08/04 06:11:39;;;;;;;5.10;2.95;;;16.10;99.90;;;;;;5016635;28;20064;-85
2023/08/04 06:14:05;;;;;;;4.28;2.88;;;16.20;99.90;;;;;;5020330;28;20164;-84
2023/08/04 06:16:30;;;;;;;4.05;2.60;;;16.10;99.90;;;;;;5015006;28;20072;-85
2023/08/04 06:18:58;;;;;;;7.68;3.58;;;16.10;99.90;;;;;;5022702;28;20025;-84
2023/08/04 06:21:23;;;;;;;4.70;2.50;;;16.10;99.90;;;;;;5008421;28;20489;-84
2023/08/04 06:23:49;;;;;;;4.65;2.50;;;16.20;99.90;;;;;;5022162;28;20045;-86
2023/08/04 06:26:15;;;;;;;8.25;2.78;;;16.20;99.90;;;;;;5016996;28;20121;-83
2023/08/04 06:28:41;;;;;;;6.97;3.03;;;16.20;99.90;;;;;;5023005;28;20120;-84
2023/08/04 06:31:06;;;;;;;4.40;2.75;;;16.30;99.90;;;;;;5020080;28;20037;-84
2023/08/04 06:33:32;;;;;;;3.53;2.33;;;16.30;99.90;;;;;;5007592;28;20037;-84
2023/08/04 06:35:58;;;;;;;5.78;2.63;;;16.30;99.90;;;;;;5021688;28;20030;-85
2023/08/04 06:38:26;;;;;;;4.40;2.38;;;16.30;99.90;;;;;;5011271;28;20478;-84
2023/08/04 06:40:52;;;;;;;5.38;2.55;;;16.40;99.90;;;;;;5006292;28;20423;-85
2023/08/04 06:43:20;;;;;;;3.42;2.33;;;16.40;99.90;;;;;;5014691;28;20033;-85
2023/08/04 06:45:46;;;;;;;7.00;2.60;;;16.50;99.90;;;;;;5019562;28;20014;-84
2023/08/04 06:48:11;;;;;;;3.58;2.60;;;16.50;99.90;;;;;;5020674;28;20021;-84
2023/08/04 06:50:37;;;;;;;3.50;2.58;;;16.50;99.90;;;;;;5024180;28;20108;-86
2023/08/04 06:53:05;;;;;;;7.65;2.78;;;16.50;99.90;;;;;;5018942;28;20527;-83
2023/08/04 06:55:30;;;;;;;3.63;2.22;;;16.50;99.90;;;;;;5012288;28;20029;-86
2023/08/04 06:57:56;;;;;;;4.88;2.67;;;16.60;99.90;;;;;;5023183;28;20029;-84
2023/08/04 07:00:21;;;;;;;3.08;2.45;;;16.60;99.90;;;;;;5018417;28;20516;-84
2023/08/04 07:02:48;;;;;;;6.78;3.00;;;16.70;99.90;;;;;;5023423;28;20018;-86
2023/08/04 07:05:16;;;;;;;5.18;2.70;;;16.80;99.90;;;;;;5020540;28;20026;-85
2023/08/04 07:07:43;;;;;;;7.25;2.38;;;16.70;99.90;;;;;;5022732;28;20094;-84
2023/08/04 07:10:10;;;;;;;3.35;2.10;;;16.80;99.90;;;;;;5023597;28;20095;-85
2023/08/04 07:12:36;;;;;;;3.65;1.67;;;16.80;99.90;;;;;;5026380;28;20022;-86
2023/08/04 07:15:02;;;;;;;4.32;2.38;;;16.90;99.90;;;;;;5026198;28;20017;-85
2023/08/04 07:17:27;;;;;;;4.13;1.90;;;16.90;99.90;;;;;;5018611;28;20033;-85
2023/08/04 07:19:53;;;;;;;3.75;1.80;;;16.90;99.90;;;;;;5023360;28;20037;-84
2023/08/04 07:22:19;;;;;;;6.40;2.25;;;17.00;99.90;;;;;;5018907;28;20545;-84
2023/08/04 07:24:47;;;;;;;6.95;2.45;;;17.00;99.90;;;;;;5023185;28;20025;-85
2023/08/04 07:27:12;;;;;;;3.58;1.98;;;17.10;99.90;;;;;;5020946;28;20223;-85
2023/08/04 07:29:38;;;;;;;2.33;1.95;;;17.10;99.90;;;;;;5018505;28;20021;-85
2023/08/04 07:32:04;;;;;;;3.42;1.90;;;17.20;99.90;;;;;;5022156;28;20025;-84
2023/08/04 07:34:31;;;;;;;2.33;1.70;;;17.20;99.90;;;;;;5016128;28;20117;-86
2023/08/04 07:36:59;;;;;;;3.00;1.88;;;17.30;99.90;;;;;;5020648;28;20022;-85
2023/08/04 07:39:25;;;;;;;2.78;1.90;;;17.30;99.90;;;;;;5018538;28;20476;-85
2023/08/04 07:41:51;;;;;;;5.53;2.83;;;17.40;99.90;;;;;;5020626;28;20026;-85
2023/08/04 07:44:17;;;;;;;4.03;2.50;;;17.50;99.90;;;;;;5022032;28;20026;-85
2023/08/04 07:46:42;;;;;;;2.45;1.65;;;17.60;99.90;;;;;;5023184;28;20612;-85
2023/08/04 07:49:08;;;;;;;7.85;3.22;;;17.80;99.90;;;;;;5020788;28;20026;-86
2023/08/04 07:51:34;;;;;;;3.13;1.95;;;17.90;99.90;;;;;;5025877;28;20032;-85
2023/08/04 07:53:59;;;;;;;3.13;1.50;;;17.90;99.90;;;;;;5022209;28;20034;-85
2023/08/04 07:56:31;;;;;;;2.33;1.63;;;17.90;99.90;;;;;;5026164;28;20461;-84
2023/08/04 07:58:57;;;;;;;4.60;1.60;;;18.00;99.90;;;;;;5012698;28;20041;-86
2023/08/04 08:01:22;;;;;;;3.65;1.70;;;18.00;99.90;;;;;;5007779;28;20540;-86
2023/08/04 08:03:48;;;;;;;5.70;1.70;;;18.10;99.90;;;;;;5014379;28;20026;-86
2023/08/04 08:06:14;;;;;;;2.15;1.42;;;18.20;99.90;;;;;;5022860;28;20018;-85
2023/08/04 08:08:39;;;;;;;4.88;1.80;;;18.30;99.90;;;;;;5013697;28;20034;-85
2023/08/04 08:11:09;;;;;;;3.30;1.48;;;18.30;99.90;;;;;;5023100;28;20116;-85
2023/08/04 08:13:35;;;;;;;3.30;1.63;;;18.20;99.90;;;;;;5025280;28;20025;-84
2023/08/04 08:16:15;;;;;;;2.65;1.83;;;18.10;99.90;;;;;;5018040;28;20187;-85
2023/08/04 08:18:41;;;;;;;4.88;1.92;;;18.10;99.90;;;;;;5008075;28;20125;-84
2023/08/04 08:21:08;;;;;;;2.40;1.40;;;17.90;99.90;;;;;;5016169;28;20515;-86
2023/08/04 08:23:37;;;;;;;3.05;1.80;;;17.80;99.90;;;;;;5023110;28;20037;-85
2023/08/04 08:26:06;;;;;;;2.22;1.35;;;17.80;99.90;;;;;;5016258;28;20022;-86
2023/08/04 08:28:31;;;;;;;3.25;1.42;;;17.90;99.90;;;;;;5025058;28;20029;-87
2023/08/04 08:30:57;;;;;;;3.90;1.92;;;17.90;99.90;;;;;;5023094;28;20037;-86
2023/08/04 08:33:23;;;;;;;2.53;1.48;;;17.90;99.90;;;;;;5011955;28;20053;-86
2023/08/04 08:35:49;;;;;;;5.97;1.25;;;18.00;99.90;;;;;;5011374;28;20083;-85
2023/08/04 08:38:14;;;;;;;3.22;1.40;;;18.00;99.90;;;;;;5018422;28;20117;-85
2023/08/04 08:40:40;;;;;;;4.38;1.60;;;18.10;99.90;;;;;;5020487;28;20045;-85
2023/08/04 08:43:06;;;;;;;3.80;1.88;;;18.20;99.90;;;;;;5018848;28;20120;-85
2023/08/04 08:45:33;;;;;;;4.53;1.75;;;18.30;99.90;;;;;;5020088;28;20026;-83
2023/08/04 08:47:59;;;;;;;6.05;2.00;;;18.30;99.90;;;;;;5020298;28;20021;-85
2023/08/04 08:50:26;;;;;;;1.60;1.13;;;18.40;99.90;;;;;;5023420;28;20032;-85
2023/08/04 08:53:06;;;;;;;2.67;1.73;;;18.50;99.90;;;;;;5021262;28;20082;-85
2023/08/04 08:55:33;;;;;;;4.45;1.48;;;18.60;99.90;;;;;;5019253;28;20033;-85
2023/08/04 08:58:01;;;;;;;3.10;1.58;;;18.60;99.90;;;;;;5023025;28;20021;-85
2023/08/04 09:00:28;;;;;;;1.80;1.25;;;18.70;99.90;;;;;;5016934;28;20098;-85
2023/08/04 09:02:55;;;;;;;2.92;1.20;;;18.70;99.90;;;;;;5024197;28;20025;-85
2023/08/04 09:05:21;;;;;;;3.72;1.77;;;18.80;99.90;;;;;;5019058;28;20029;-84
2023/08/04 09:07:50;;;;;;;3.05;1.02;;;18.90;99.90;;;;;;5024808;28;20036;-85
2023/08/04 09:10:16;;;;;;;2.42;1.38;;;19.00;99.90;;;;;;5018934;28;20033;-84
2023/08/04 09:12:45;;;;;;;2.08;1.20;;;19.10;99.90;;;;;;5022945;28;20021;-84
2023/08/04 09:15:12;;;;;;;2.40;1.10;;;19.20;99.90;;;;;;5021522;28;20021;-84
2023/08/04 09:17:39;;;;;;;2.63;1.00;;;19.20;99.90;;;;;;5017270;28;20022;-85
2023/08/04 09:20:10;;;;;;;4.15;1.40;;;19.30;99.90;;;;;;5022889;28;20026;-83
2023/08/04 09:22:43;;;;;;;3.40;1.17;;;19.30;99.90;;;;;;5012019;28;20620;-83
2023/08/04 09:25:10;;;;;;;1.20;0.82;;;19.40;99.90;;;;;;5018140;28;20053;-85
2023/08/04 09:27:43;;;;;;;2.15;0.90;;;19.40;99.90;;;;;;5019719;28;20036;-84
2023/08/04 09:30:10;;;;;;;3.22;1.15;;;19.40;99.90;;;;;;5020169;28;20029;-84
2023/08/04 09:32:45;;;;;;;3.45;0.90;;;19.50;99.90;;;;;;5020593;28;20049;-84
2023/08/04 09:35:12;;;;;;;1.17;0.75;;;19.40;99.90;;;;;;5019292;28;20024;-85
2023/08/04 09:37:39;;;;;;;2.33;1.10;;;19.40;99.90;;;;;;5022900;28;20436;-86
2023/08/04 09:40:18;;;;;;;1.63;1.35;;;19.40;99.90;;;;;;5016587;28;20053;-86
2023/08/04 09:42:44;;;;;;;2.83;1.10;;;19.60;99.90;;;;;;5017300;28;20084;-85
2023/08/04 09:45:15;;;;;;;2.38;1.17;;;19.70;99.90;;;;;;5014442;28;20041;-85
2023/08/04 09:47:48;;;;;;;2.08;0.98;;;19.80;99.90;;;;;;5017730;28;20448;-86
2023/08/04 09:50:14;;;;;;;2.58;1.20;;;19.90;99.90;;;;;;5021486;28;20179;-83
2023/08/04 09:52:40;;;;;;;3.08;1.60;;;19.90;99.90;;;;;;5017877;28;20022;-86
2023/08/04 09:55:10;;;;;;;1.05;0.93;;;19.90;99.90;;;;;;5026786;28;20091;-84
2023/08/04 09:57:37;;;;;;;1.27;0.90;;;19.90;99.90;;;;;;5019946;28;20133;-85
2023/08/04 10:00:08;;;;;;;1.52;1.05;;;20.00;99.90;;;;;;5016565;28;20021;-85
2023/08/04 10:02:34;;;;;;;4.80;1.30;;;20.00;99.90;;;;;;5011956;28;20551;-84
2023/08/04 10:05:01;;;;;;;5.70;1.38;;;20.00;99.90;;;;;;5019009;28;20084;-84
2023/08/04 10:07:29;;;;;;;2.17;1.30;;;20.00;99.90;;;;;;5021905;28;20034;-85
2023/08/04 10:09:55;;;;;;;3.10;1.35;;;20.10;99.90;;;;;;5014553;28;20124;-84
2023/08/04 10:12:22;;;;;;;4.63;1.20;;;19.90;99.90;;;;;;5024389;28;20108;-85
2023/08/04 10:14:48;;;;;;;4.15;1.20;;;20.00;99.90;;;;;;5021154;28;20026;-83
2023/08/04 10:17:14;;;;;;;4.38;1.55;;;20.00;99.90;;;;;;5013555;28;20032;-86
2023/08/04 10:19:39;;;;;;;1.15;0.88;;;20.00;99.90;;;;;;5020931;28;20577;-85
2023/08/04 10:22:10;;;;;;;3.90;1.42;;;20.00;99.90;;;;;;5017986;28;20052;-84
2023/08/04 10:24:42;;;;;;;2.83;1.00;;;19.90;99.90;;;;;;5022009;28;20137;-82
2023/08/04 10:27:19;;;;;;;1.50;0.90;;;19.90;99.90;;;;;;5024181;28;20392;-85
2023/08/04 10:29:45;;;;;;;3.45;1.33;;;19.70;99.90;;;;;;5026923;28;20028;-86
2023/08/04 10:32:11;;;;;;;2.42;1.10;;;19.60;99.90;;;;;;5024451;28;20041;-83
2023/08/04 10:34:43;;;;;;;2.65;0.95;;;19.50;99.90;;;;;;5016715;28;20026;-85
2023/08/04 10:37:15;;;;;;;1.85;1.38;;;19.50;99.90;;;;;;5025599;28;20045;-86
2023/08/04 10:39:44;;;;;;;1.35;0.80;;;19.60;99.90;;;;;;5001819;28;20559;-85
2023/08/04 10:42:14;;;;;;;1.13;1.02;;;19.50;99.90;;;;;;5018649;28;20030;-82
2023/08/04 10:45:04;;;;;;;1.40;0.98;;;19.60;99.90;;;;;;5026242;28;20022;-84
2023/08/04 10:47:45;;;;;;;4.85;1.75;;;19.70;99.90;;;;;;5020415;28;20032;-84
2023/08/04 10:50:11;;;;;;;3.13;1.23;;;19.80;99.90;;;;;;5026925;28;20112;-85
2023/08/04 10:52:38;;;;;;;1.20;1.00;;;19.90;99.90;;;;;;5021639;28;20122;-85
2023/08/04 10:55:06;;;;;;;2.92;1.33;;;20.00;99.90;;;;;;5029958;28;20075;-85
2023/08/04 10:57:33;;;;;;;4.07;1.50;;;20.10;99.90;;;;;;5020221;28;20046;-83
2023/08/04 11:00:03;;;;;;;0.90;0.90;;;20.10;99.90;;;;;;5022076;28;20029;-85
2023/08/04 11:02:29;;;;;;;1.73;1.00;;;20.10;99.90;;;;;;5022872;28;20033;-85
2023/08/04 11:04:56;;;;;;;1.90;1.00;;;20.10;99.90;;;;;;5022358;28;20029;-83
2023/08/04 11:07:23;;;;;;;1.58;1.35;;;20.00;99.90;;;;;;5025330;28;20025;-85
2023/08/04 11:09:50;;;;;;;1.40;1.30;;;19.90;99.90;;;;;;5023570;28;20515;-85
2023/08/04 11:12:16;;;;;;;2.10;1.02;;;20.10;99.90;;;;;;5027752;28;20626;-85
2023/08/04 11:14:43;;;;;;;3.22;1.40;;;20.20;99.90;;;;;;5022640;28;20432;-87
2023/08/04 11:17:19;;;;;;;3.38;1.25;;;20.20;99.90;;;;;;5022033;28;20029;-84
2023/08/04 11:19:47;;;;;;;2.03;0.90;;;20.10;99.90;;;;;;5023326;28;20024;-85
2023/08/04 11:22:19;;;;;;;2.55;1.23;;;20.00;99.90;;;;;;5022343;28;20022;-86
2023/08/04 11:24:45;;;;;;;1.83;0.98;;;19.90;99.90;;;;;;5020292;28;20020;-85
2023/08/04 11:27:15;;;;;;;1.58;1.48;;;19.80;99.90;;;;;;5023678;28;20022;-85
2023/08/04 11:29:41;;;;;;;2.88;1.88;;;19.70;99.90;;;;;;5026087;28;20024;-84
2023/08/04 11:32:10;;;;;;;3.28;1.20;;;19.50;99.90;;;;;;5023901;28;20037;-85
2023/08/04 11:34:38;;;;;;;3.05;1.63;;;19.30;99.90;;;;;;5019390;28;20053;-85
2023/08/04 11:37:04;;;;;;;1.83;1.52;;;19.30;99.90;;;;;;5026166;28;20554;-86
2023/08/04 11:39:30;;;;;;;2.70;1.40;;;19.20;99.90;;;;;;5022909;28;20025;-85
2023/08/04 11:41:55;;;;;;;2.60;1.50;;;19.10;99.90;;;;;;5020652;28;20052;-85
2023/08/04 11:44:22;;;;;;;4.65;1.45;;;18.90;99.90;;;;;;5022989;28;20029;-84
2023/08/04 11:46:48;;;;;;;3.00;0.85;;;18.90;99.90;;;;;;5016354;28;20021;-84
2023/08/04 11:49:14;;;;;;;4.82;1.42;;;18.80;99.90;;;;;;5025179;28;20504;-83
2023/08/04 11:51:44;;;;;;;3.67;1.15;;;18.80;99.90;;;;;;5025530;28;20083;-84
2023/08/04 11:54:18;;;;;;;1.80;1.20;;;18.80;99.90;;;;;;5011466;28;20088;-83
2023/08/04 11:56:43;;;;;;;2.05;1.35;;;18.80;99.90;;;;;;5026974;28;20646;-82
2023/08/04 11:59:10;;;;;;;1.50;1.20;;;18.80;99.90;;;;;;5018421;28;20101;-85
2023/08/04 12:01:36;;;;;;;3.92;1.30;;;18.90;99.90;;;;;;5018828;28;20765;-84
2023/08/04 12:04:02;;;;;;;3.25;1.10;;;19.00;99.90;;;;;;5019006;28;20050;-84
2023/08/04 12:06:29;;;;;;;3.28;1.30;;;19.00;99.90;;;;;;5023471;28;20021;-84
2023/08/04 12:08:58;;;;;;;3.25;1.50;;;19.00;99.90;;;;;;5024209;28;20112;-84
2023/08/04 12:11:26;;;;;;;1.58;1.00;;;19.10;99.90;;;;;;5026437;28;20029;-85
2023/08/04 12:14:04;;;;;;;2.00;1.55;;;19.20;99.90;;;;;;5015341;28;20021;-85
2023/08/04 12:16:30;;;;;;;3.88;1.27;;;19.40;99.90;;;;;;5018534;28;20072;-84
2023/08/04 12:19:05;;;;;;;2.55;1.15;;;19.50;99.90;;;;;;5021541;28;20021;-84
2023/08/04 12:21:31;;;;;;;2.25;1.45;;;19.60;99.90;;;;;;5020125;28;20100;-84
2023/08/04 12:23:56;;;;;;;2.05;1.17;;;19.70;99.90;;;;;;5028571;28;20508;-85
2023/08/04 12:26:22;;;;;;;2.85;1.00;;;19.80;99.90;;;;;;5021940;28;20072;-84
2023/08/04 12:28:48;;;;;;;2.55;0.90;;;19.80;99.90;;;;;;5021570;28;20029;-87
2023/08/04 12:31:13;;;;;;;3.88;1.63;;;19.90;99.90;;;;;;5022545;28;20034;-84
2023/08/04 12:33:39;;;;;;;1.83;0.90;;;19.90;99.90;;;;;;5020766;28;20496;-84
2023/08/04 12:36:05;;;;;;;2.80;0.98;;;20.10;99.90;;;;;;5022193;28;20710;-88
2023/08/04 12:38:30;;;;;;;3.10;1.13;;;20.00;99.90;;;;;;5012488;28;20028;-85
2023/08/04 12:40:56;;;;;;;4.22;1.50;;;20.10;99.90;;;;;;5022883;28;20229;-86
2023/08/04 12:43:22;;;;;;;2.78;1.05;;;20.20;99.90;;;;;;5020896;28;20045;-85